Fife Airport


Codes: EGPJ/
Name: Fife Airport
City:
Country: United Kingdom
Elevation: 339 ft.

Photos at Fife Airport


   Photos courtesy of SpottingLog. You can add your own sightings and photos by signing up for a free trial today.



No photos found.

Weather at Fife Airport


Time (UTC)DescriptionTempratureWindCloud coverageVisibilityPressureHumidity
16-Jun-2024 12:00Moderate Rain12°C7 mph, SW100%6950m994hPa91%
16-Jun-2024 15:00Light Rain12°C4 mph, W100%10000m995hPa93%
16-Jun-2024 18:00Light Rain12°C4 mph, W100%10000m997hPa93%
16-Jun-2024 21:00Light Rain10°C4 mph, N88%10000m1000hPa92%
17-Jun-2024 00:00Broken Clouds8°C4 mph, W57%10000m1002hPa92%
17-Jun-2024 03:00Scattered Clouds7°C7 mph, W34%10000m1003hPa92%
17-Jun-2024 06:00Broken Clouds10°C4 mph, W57%10000m1005hPa90%
17-Jun-2024 09:00Light Rain14°C9 mph, NW37%10000m1007hPa72%
17-Jun-2024 12:00Light Rain15°C4 mph, N46%10000m1008hPa65%
17-Jun-2024 15:00Light Rain17°C4 mph, NW53%10000m1009hPa58%
17-Jun-2024 18:00Light Rain15°C4 mph, N58%10000m1010hPa79%
17-Jun-2024 21:00Light Rain11°C4 mph, E17%10000m1013hPa89%
18-Jun-2024 00:00Scattered Clouds10°C2 mph, SE44%10000m1014hPa90%
18-Jun-2024 03:00Overcast Clouds10°C2 mph, SE100%10000m1015hPa92%
18-Jun-2024 06:00Light Rain10°C2 mph, SE100%10000m1016hPa94%
18-Jun-2024 09:00Light Rain11°C4 mph, SE100%10000m1017hPa91%
18-Jun-2024 12:00Light Rain13°C9 mph, SE100%10000m1018hPa83%
18-Jun-2024 15:00Light Rain13°C7 mph, SE100%10000m1019hPa78%
18-Jun-2024 18:00Light Rain12°C7 mph, E98%10000m1020hPa85%
18-Jun-2024 21:00Overcast Clouds8°C7 mph, E100%10000m1021hPa94%
19-Jun-2024 00:00Overcast Clouds7°C2 mph, E100%10000m1022hPa93%
19-Jun-2024 03:00Overcast Clouds7°C4 mph, W94%10000m1021hPa94%
19-Jun-2024 06:00Overcast Clouds9°C7 mph, SW96%10000m1021hPa88%
19-Jun-2024 09:00Overcast Clouds13°C11 mph, SW95%10000m1020hPa69%
19-Jun-2024 12:00Overcast Clouds16°C13 mph, SW89%10000m1019hPa70%
19-Jun-2024 15:00Broken Clouds17°C18 mph, SW81%10000m1018hPa69%
19-Jun-2024 18:00Broken Clouds16°C16 mph, SW80%10000m1017hPa65%
19-Jun-2024 21:00Broken Clouds12°C11 mph, SW81%10000m1018hPa68%
20-Jun-2024 00:00Overcast Clouds11°C11 mph, SW87%10000m1017hPa71%
20-Jun-2024 03:00Overcast Clouds10°C9 mph, SW100%10000m1015hPa76%
20-Jun-2024 06:00Overcast Clouds13°C9 mph, SW95%10000m1015hPa78%
20-Jun-2024 09:00Overcast Clouds13°C11 mph, SW100%10000m1014hPa76%
20-Jun-2024 12:00Overcast Clouds13°C7 mph, SW100%10000m1015hPa82%
20-Jun-2024 15:00Overcast Clouds14°C7 mph, SW100%10000m1013hPa83%
20-Jun-2024 18:00Light Rain13°C7 mph, SW100%10000m1012hPa93%
20-Jun-2024 21:00Light Rain11°C4 mph, SW89%10000m1012hPa96%
21-Jun-2024 00:00Overcast Clouds11°C4 mph, SW92%10000m1010hPa95%
21-Jun-2024 03:00Overcast Clouds12°C4 mph, SW100%10000m1008hPa92%
21-Jun-2024 06:00Overcast Clouds13°C4 mph, SW96%10000m1007hPa88%
21-Jun-2024 09:00Overcast Clouds15°C7 mph, SW88%10000m1005hPa81%